Flight Track Log - Related Links

Times and Time Zones

All times are in EDT time to prevent confusion due to time zone crossing. See the SWA1086 flight status page for this flight to view local times or setup timezone preferences in your user account.

Time Position Orientation Groundspeed Altitude Reporting Facility
EDT Latitude Longitude Course Direction KTS km/h feet Rate Location/Type
Sun 11:03:40 35.3539 -97.6044 184° South 164 304 3.100  Level Fort Worth Center
Sun 11:04:40 35.3539 -97.6731 270° West 227 420 6.000 2.777 Climbing Fort Worth Center
Sun 11:05:41 35.4183 -97.7039 339° North 316 586 8.700 2.487 Climbing Fort Worth Center
Sun 11:07:53 35.6089 -97.6272 18° North 345 639 14.000 2.000 Climbing Kansas City Center
Sun 11:08:53 35.7144 -97.5844 18° North 385 713 15.100 2.032 Climbing Kansas City Center
Sun 11:09:57 35.8153 -97.5433 18° North 384 711 18.200 2.784 Climbing Kansas City Center
Sun 11:10:58 35.9178 -97.5019 18° North 384 711 20.900 2.459 Climbing Kansas City Center
Sun 11:11:59 36.0447 -97.4508 18° North 394 729 23.200 2.177 Climbing Kansas City Center
Sun 11:13:02 36.1547 -97.4058 18° North 409 758 25.400 1.776 Climbing Kansas City Center
Sun 11:14:04 36.2639 -97.3594 19° North 413 764 26.900 1.415 Climbing Kansas City Center
Sun 11:15:05 36.3792 -97.3128 18° North 427 790 28.300 1.584 Climbing Kansas City Center
Sun 11:16:09 36.4956 -97.2639 19° North 439 813 30.200 1.296 Climbing Kansas City Center
Sun 11:17:10 36.6125 -97.2158 18° North 441 816 31.000 393 Climbing Kansas City Center
Sun 11:18:11 36.7311 -97.1694 17° North 445 824 31.000  Level Kansas City Center
Sun 11:19:15 36.8528 -97.0944 26° Northeast 449 832 31.000  Level Kansas City Center
Sun 11:20:17 36.9653 -97.0189 28° Northeast 459 850 31.000  Level Kansas City Center
Sun 11:21:18 37.0719 -96.9347 32° Northeast 458 848 31.000  Level Kansas City Center
Sun 11:22:19 37.1986 -96.8283 34° Northeast 459 850 31.000  Level Kansas City Center
Sun 11:23:20 37.3042 -96.7369 35° Northeast 461 855 31.000  Level Kansas City Center
Sun 11:24:24 37.4117 -96.6447 34° Northeast 464 859 31.000 -339 Level Kansas City Center
Sun 11:25:24 37.5206 -96.5519 34° Northeast 471 872 30.300 -927 Descending Kansas City Center
Sun 11:26:27 37.6275 -96.4589 35° Northeast 470 871 29.100 -1.152 Descending Kansas City Center
Sun 11:27:29 37.7353 -96.3675 34° Northeast 468 867 27.900 -1.180 Descending Kansas City Center
Sun 11:28:29 37.8617 -96.2572 35° Northeast 462 856 26.700 -1.065 Descending Kansas City Center
Sun 11:29:33 37.9669 -96.1653 35° Northeast 461 855 25.700 -905 Descending Kansas City Center
Sun 11:30:35 38.0703 -96.0756 34° Northeast 453 838 24.800 -1.065 Descending Kansas City Center
Sun 11:31:37 38.1850 -95.9736 35° Northeast 451 835 23.500 -885 Descending Kansas City Center
Sun 11:32:37 38.2808 -95.8894 35° Northeast 440 814 23.000 -242 Descending Kansas City Center
Sun 11:33:41 38.3758 -95.8050 35° Northeast 436 808 23.000  Level Kansas City Center
Sun 11:34:42 38.4861 -95.7072 35° Northeast 432 800 23.000  Level Kansas City Center
Sun 11:35:45 38.5778 -95.6253 35° Northeast 421 779 23.000 -871 Level Kansas City Center
Sun 11:36:46 38.6836 -95.5308 35° Northeast 416 771 21.200 -1.918 Descending Kansas City Center
Sun 11:37:47 38.7719 -95.4522 35° Northeast 406 752 19.100 -2.592 Descending Kansas City Center
Sun 11:38:51 38.8614 -95.3433 43° Northeast 398 737 15.800 -2.878 Descending Kansas City Center
Sun 11:39:50 38.9328 -95.2414 48° Northeast 402 745 13.200 -1.854 Descending Kansas City Center
Sun 11:40:54 39.0131 -95.1283 48° Northeast 383 710 12.000 -581 Descending Kansas City Center
Sun 11:41:54 39.0742 -95.0406 48° Northeast 345 639 12.000 -48 Level Kansas City Center
Sun 11:42:58 39.1431 -94.9422 48° Northeast 339 628 11.900 -864 Descending Kansas City Center
Sun 11:43:59 39.1989 -94.8700 45° Northeast 304 563 10.200 -1.854 Descending Kansas City Center
Sun 11:45:01 39.2864 -94.8344 17° North 297 550 8.100 -1.902 Descending Kansas City Center
Sun 11:46:02 39.3614 -94.8033 18° North 297 550 6.300 -1.392 Descending Kansas City Center
Sun 11:47:06 39.4472 -94.7675 18° North 290 538 5.200 -1.024 Descending Kansas City Center
Sun 11:48:05 39.4553 -94.6978 81° East 203 377 4.200 -1.171 Descending Kansas City Center
Sun 11:49:09 39.4150 -94.6936 175° South 137 254 2.800 -968 Descending Kansas City Center
Sun 11:50:09 39.3806 -94.7039 193° South 133 246 2.200 -677 Descending Kansas City Center
Sun 11:51:13 39.3428 -94.7150 193° South 126 233 1.400 -576 Descending Kansas City Center
Sun 11:52:14 39.3100 -94.7244 193° South 128 237 1.000 -393 Descending Kansas City Center

Login

Don't have an account? Register now (free) for customized features, flight alerts, and more!